Time;durP1;ratioP1;P1;durP2;ratioP2;P2;SDS_P1;SDS_P2;PMS_P1;PMS_P2;Temp;Humidity;BMP_temperature;BMP_pressure;BME280_temperature;BME280_humidity;BME280_pressure;Samples;Min_cycle;Max_cycle;Signal;HPM_P1;HPM_P2
2024/02/07 00:00:17;;;;;;;8.87;2.93;;;;;;;12.34;60.01;101328.47;2085654;28;20193;-71
2024/02/07 00:01:17;;;;;;;2.90;2.17;;;;;;;12.19;60.39;101302.19;2086189;28;20188;-71
2024/02/07 00:02:18;;;;;;;4.60;2.50;;;;;;;12.31;59.96;101329.31;2084216;28;20205;-72
2024/02/07 00:03:18;;;;;;;5.53;2.63;;;;;;;12.04;59.87;101293.31;2080769;28;20174;-71
2024/02/07 00:04:19;;;;;;;5.23;2.90;;;;;;;12.12;59.74;101293.97;2088089;28;20190;-71
2024/02/07 00:05:19;;;;;;;5.57;2.73;;;;;;;11.86;59.89;101270.66;2088211;28;20191;-71
2024/02/07 00:06:20;;;;;;;3.90;2.30;;;;;;;12.26;59.91;101333.38;2080745;28;20194;-72
2024/02/07 00:07:20;;;;;;;7.63;2.67;;;;;;;11.84;59.91;101258.41;2079195;28;20188;-71
2024/02/07 00:08:21;;;;;;;3.90;2.93;;;;;;;12.24;60.03;101321.91;2078870;28;20202;-71
2024/02/07 00:09:21;;;;;;;3.83;2.50;;;;;;;11.81;59.95;101251.72;2089895;28;20217;-71
2024/02/07 00:10:22;;;;;;;5.63;3.00;;;;;;;11.95;60.28;101284.75;2079734;28;20248;-72
2024/02/07 00:11:22;;;;;;;6.07;3.00;;;;;;;12.20;60.33;101317.63;2078734;28;20697;-71
2024/02/07 00:12:23;;;;;;;3.57;2.47;;;;;;;11.67;60.07;101246.41;2079031;28;20250;-71
2024/02/07 00:13:23;;;;;;;5.67;2.70;;;;;;;12.18;60.30;101323.63;2079245;28;20197;-72
2024/02/07 00:14:24;;;;;;;5.33;2.47;;;;;;;11.69;60.37;101257.09;2083592;28;20203;-72
2024/02/07 00:15:24;;;;;;;3.23;2.17;;;;;;;12.16;60.41;101328.03;2078622;28;20217;-72
2024/02/07 00:16:25;;;;;;;4.23;2.53;;;;;;;11.84;60.73;101284.16;2079918;28;20178;-72
2024/02/07 00:17:25;;;;;;;4.90;3.00;;;;;;;12.17;60.76;101332.38;2087012;28;20190;-71
2024/02/07 00:20:22;;;;;;;5.83;2.67;;;;;;;11.70;60.83;101276.13;2080908;28;20739;-72
2024/02/07 00:21:23;;;;;;;6.60;3.37;;;;;;;12.04;60.99;101329.44;2085440;28;20882;-71
2024/02/07 00:22:23;;;;;;;3.53;2.30;;;;;;;11.70;61.37;101278.91;2088145;28;20653;-71
2024/02/07 00:23:24;;;;;;;3.57;2.43;;;;;;;12.03;61.49;101325.09;2080210;28;20276;-71
2024/02/07 00:24:24;;;;;;;7.00;2.87;;;;;;;12.04;61.41;101325.88;2085511;28;20573;-72
2024/02/07 00:25:25;;;;;;;4.03;2.67;;;;;;;12.04;61.54;101329.44;2083520;28;20686;-71
2024/02/07 00:26:25;;;;;;;5.03;2.80;;;;;;;12.06;61.40;101326.22;2081637;28;20253;-71
2024/02/07 00:27:26;;;;;;;4.20;2.47;;;;;;;11.65;61.70;101270.25;2079634;28;20182;-71
2024/02/07 00:28:26;;;;;;;5.03;2.60;;;;;;;11.86;61.69;101304.00;2080559;28;20179;-71
2024/02/07 00:29:27;;;;;;;5.43;2.93;;;;;;;11.55;61.79;101246.22;2078838;28;20204;-71
2024/02/07 00:30:29;;;;;;;5.20;2.73;;;;;;;12.07;62.23;101328.59;2084135;28;20232;-72
2024/02/07 00:31:29;;;;;;;6.47;2.50;;;;;;;12.08;61.92;101324.59;2086269;28;20190;-71
2024/02/07 00:32:30;;;;;;;4.53;2.80;;;;;;;12.08;61.92;101324.59;2086931;28;20447;-71
2024/02/07 00:33:31;;;;;;;6.47;2.60;;;;;;;11.73;61.96;101280.03;2086474;28;20180;-72
2024/02/07 00:34:33;;;;;;;4.97;2.83;;;;;;;12.06;62.18;101324.25;2088013;28;20188;-71
2024/02/07 00:35:34;;;;;;;5.33;2.73;;;;;;;12.06;61.89;101315.91;2079360;28;20620;-72
2024/02/07 00:36:34;;;;;;;6.37;3.10;;;;;;;12.04;62.34;101329.44;2078746;28;20498;-72
2024/02/07 00:37:35;;;;;;;4.77;2.90;;;;;;;12.04;62.54;101325.88;2079135;28;20192;-72
2024/02/07 00:38:35;;;;;;;5.97;3.00;;;;;;;11.70;62.72;101303.09;2080630;28;20229;-72
2024/02/07 00:39:36;;;;;;;5.30;2.47;;;;;;;11.57;62.98;101255.69;2091365;28;20235;-73
2024/02/07 00:40:37;;;;;;;6.53;3.30;;;;;;;12.00;63.42;101325.16;2080329;28;20221;-72
2024/02/07 00:41:37;;;;;;;6.43;3.10;;;;;;;12.00;63.49;101319.59;2078334;28;20969;-72
2024/02/07 00:42:38;;;;;;;6.57;2.73;;;;;;;11.63;62.92;101256.78;2083412;28;20218;-72
2024/02/07 00:43:39;;;;;;;4.80;3.17;;;;;;;11.60;62.81;101266.00;2085501;28;20188;-72
2024/02/07 00:45:22;;;;;;;5.27;2.60;;;;;;;11.96;62.76;101316.91;2086529;28;20451;-71
2024/02/07 00:46:23;;;;;;;6.03;2.67;;;;;;;11.44;62.75;101254.75;2080046;28;20711;-72
2024/02/07 00:47:23;;;;;;;4.27;2.67;;;;;;;11.90;63.15;101321.38;2083380;28;20850;-72
2024/02/07 00:48:24;;;;;;;6.27;2.77;;;;;;;11.87;63.31;101318.63;2087311;28;20689;-72
2024/02/07 00:49:24;;;;;;;4.67;2.63;;;;;;;11.84;64.22;101320.28;2087959;28;20180;-72
2024/02/07 00:50:25;;;;;;;4.83;2.70;;;;;;;11.85;64.17;101315.50;2088669;28;20180;-71
2024/02/07 00:51:25;;;;;;;5.63;3.10;;;;;;;11.84;64.46;101313.94;2081056;28;20200;-72
2024/02/07 00:52:26;;;;;;;4.80;2.67;;;;;;;11.89;64.26;101316.25;2086852;28;20194;-72
2024/02/07 00:53:26;;;;;;;4.60;2.50;;;;;;;11.86;64.95;101317.88;2088222;28;20193;-72
2024/02/07 00:54:27;;;;;;;4.70;2.70;;;;;;;11.32;65.33;101230.34;2085396;28;20249;-72
2024/02/07 00:55:28;;;;;;;3.90;2.20;;;;;;;11.78;65.19;101305.31;2082176;28;20258;-72
2024/02/07 00:56:30;;;;;;;3.40;2.17;;;;;;;11.31;65.86;101226.03;2088869;28;20418;-71
2024/02/07 00:57:30;;;;;;;7.03;3.00;;;;;;;11.79;65.57;101306.88;2081817;28;20199;-72
2024/02/07 00:58:31;;;;;;;4.40;2.47;;;;;;;11.27;65.21;101221.75;2080466;28;20526;-72
2024/02/07 00:59:31;;;;;;;5.83;3.07;;;;;;;11.82;65.49;101308.03;2080843;28;20205;-72
2024/02/07 01:00:32;;;;;;;4.87;2.67;;;;;;;11.49;65.72;101259.81;2080759;28;20190;-72
2024/02/07 01:01:32;;;;;;;3.77;2.50;;;;;;;11.80;65.85;101307.66;2081490;28;20239;-72
2024/02/07 01:02:33;;;;;;;4.00;2.63;;;;;;;11.58;65.77;101270.38;2088870;28;20172;-72
2024/02/07 01:03:33;;;;;;;5.77;2.63;;;;;;;11.78;65.72;101308.09;2089357;28;20191;-72
2024/02/07 01:04:34;;;;;;;5.50;2.70;;;;;;;11.61;66.20;101281.44;2088222;28;20264;-72
2024/02/07 01:05:34;;;;;;;5.20;2.70;;;;;;;11.79;66.65;101309.66;2082632;28;20696;-72
2024/02/07 01:06:35;;;;;;;6.93;2.73;;;;;;;11.55;67.00;101266.44;2080587;28;20190;-72
2024/02/07 01:07:36;;;;;;;4.83;2.93;;;;;;;11.83;66.54;101304.06;2081913;28;20173;-72
2024/02/07 01:08:36;;;;;;;6.00;2.80;;;;;;;11.71;66.50;101293.53;2088639;28;20182;-71
2024/02/07 01:09:37;;;;;;;5.70;2.77;;;;;;;11.82;66.78;101300.47;2086684;28;20434;-72
2024/02/07 01:10:39;;;;;;;4.20;2.50;;;;;;;11.52;66.85;101267.28;2082051;28;20190;-72
2024/02/07 01:11:40;;;;;;;4.13;2.57;;;;;;;11.71;66.79;101285.22;2085166;28;20185;-71
2024/02/07 01:12:40;;;;;;;5.47;3.10;;;;;;;11.48;67.11;101255.44;2084847;28;20508;-71
2024/02/07 01:13:41;;;;;;;5.60;2.73;;;;;;;11.60;67.23;101281.84;2080350;28;20174;-71
2024/02/07 01:14:42;;;;;;;4.33;2.70;;;;;;;11.74;67.58;101296.25;2086754;28;20172;-71
2024/02/07 01:15:43;;;;;;;5.40;2.20;;;;;;;11.59;67.88;101281.06;2089927;28;20996;-71
2024/02/07 01:16:43;;;;;;;4.87;2.67;;;;;;;11.74;68.20;101296.25;2081644;28;20552;-71
2024/02/07 01:17:44;;;;;;;4.53;2.40;;;;;;;11.19;68.26;101231.38;2080303;28;20197;-71
2024/02/07 01:18:44;;;;;;;6.47;3.00;;;;;;;11.48;68.68;101266.53;2080369;28;20189;-70
2024/02/07 01:19:47;;;;;;;4.47;2.60;;;;;;;11.64;68.50;101283.34;2088526;28;20649;-70
2024/02/07 01:20:47;;;;;;;3.60;2.40;;;;;;;11.47;67.97;101247.56;2084187;28;20235;-71
2024/02/07 01:21:48;;;;;;;5.03;2.57;;;;;;;11.79;68.47;101301.31;2081398;28;20412;-71
2024/02/07 01:22:48;;;;;;;4.87;2.53;;;;;;;11.76;68.65;101296.63;2080977;28;20189;-70
2024/02/07 01:23:49;;;;;;;4.53;2.80;;;;;;;11.74;68.93;101301.81;2085772;28;20640;-71
2024/02/07 01:24:49;;;;;;;5.57;2.80;;;;;;;11.57;68.77;101272.34;2088128;28;20210;-70
2024/02/07 01:25:50;;;;;;;4.03;2.50;;;;;;;11.33;69.30;101226.38;2087940;28;20221;-71
2024/02/07 01:26:51;;;;;;;5.93;3.20;;;;;;;11.79;69.15;101289.44;2088034;28;20641;-71
2024/02/07 01:27:52;;;;;;;5.70;2.90;;;;;;;11.36;69.43;101221.97;2081479;28;20848;-70
2024/02/07 01:28:53;;;;;;;7.40;3.00;;;;;;;11.90;68.79;101287.25;2080883;28;20192;-70
2024/02/07 01:29:55;;;;;;;4.90;2.30;;;;;;;11.33;68.48;101187.53;2081172;28;20441;-71
2024/02/07 01:30:55;;;;;;;5.40;2.90;;;;;;;11.38;68.59;101205.69;2079939;28;20662;-71
2024/02/07 01:31:56;;;;;;;5.00;2.53;;;;;;;11.83;68.30;101265.19;2081824;28;20496;-71
2024/02/07 01:32:56;;;;;;;5.97;2.57;;;;;;;12.04;68.04;101287.75;2088218;28;20168;-71
2024/02/07 01:33:58;;;;;;;5.57;2.60;;;;;;;12.07;67.70;101286.13;2089743;28;20176;-71
2024/02/07 01:34:59;;;;;;;4.80;2.73;;;;;;;12.08;67.61;101287.69;2087568;28;20242;-70
2024/02/07 01:36:00;;;;;;;3.80;2.30;;;;;;;11.78;67.65;101237.91;2081963;28;20453;-71
2024/02/07 01:37:00;;;;;;;5.60;2.50;;;;;;;12.08;67.71;101291.25;2079611;28;20453;-71
2024/02/07 01:38:17;;;;;;;5.20;2.90;;;;;;;12.12;67.30;101289.19;2081828;28;20290;-71
2024/02/07 01:39:18;;;;;;;2.90;1.93;;;;;;;11.57;67.35;101218.81;2088033;28;20204;-71
2024/02/07 01:40:19;;;;;;;4.77;2.80;;;;;;;11.68;67.48;101222.22;2092830;28;20472;-71
2024/02/07 01:41:23;;;;;;;5.73;2.77;;;;;;;11.76;67.74;101245.84;2088829;28;20449;-72
2024/02/07 01:42:28;;;;;;;6.83;2.70;;;;;;;11.96;67.44;101271.66;2088511;28;20441;-70
2024/02/07 01:43:33;;;;;;;4.97;2.43;;;;;;;12.03;67.89;101279.84;2086053;28;20932;-71
2024/02/07 01:44:34;;;;;;;5.40;2.80;;;;;;;12.05;67.73;101292.09;2085864;28;20434;-71
2024/02/07 01:45:34;;;;;;;7.43;2.73;;;;;;;12.04;67.69;101290.53;2095304;28;20968;-71
2024/02/07 01:46:35;;;;;;;5.07;2.70;;;;;;;11.82;67.88;101256.06;2087660;28;20899;-72
2024/02/07 01:47:36;;;;;;;5.47;2.30;;;;;;;11.74;67.88;101248.28;2088084;28;20190;-71
2024/02/07 01:48:36;;;;;;;5.03;2.67;;;;;;;11.91;68.12;101263.81;2088293;28;20177;-71
2024/02/07 01:49:47;;;;;;;5.53;2.40;;;;;;;11.59;67.79;101217.19;2087567;28;20669;-70
2024/02/07 01:50:50;;;;;;;5.07;2.83;;;;;;;12.06;67.88;101281.78;2087444;28;20274;-71
2024/02/07 01:51:51;;;;;;;3.73;2.10;;;;;;;11.72;67.69;101251.47;2087677;28;20478;-72
2024/02/07 01:52:55;;;;;;;5.27;2.70;;;;;;;12.04;67.91;101287.00;2088028;28;20454;-71
2024/02/07 01:53:56;;;;;;;4.77;2.57;;;;;;;12.10;67.68;101291.59;2083692;28;20555;-71
2024/02/07 01:54:57;;;;;;;7.33;2.97;;;;;;;12.06;67.76;101285.34;2083675;28;20425;-71
2024/02/07 01:55:59;;;;;;;5.43;2.53;;;;;;;12.08;67.94;101277.38;2087336;28;20557;-70
2024/02/07 01:57:01;;;;;;;6.07;2.83;;;;;;;11.95;68.31;101268.09;2081335;28;20486;-71
2024/02/07 01:58:03;;;;;;;5.87;2.83;;;;;;;11.95;68.54;101281.22;2080090;28;20459;-70
2024/02/07 01:59:05;;;;;;;4.27;2.63;;;;;;;11.71;68.69;101235.25;2085299;28;20471;-71
2024/02/07 02:00:08;;;;;;;4.03;2.57;;;;;;;11.96;68.53;101275.22;2082057;28;20450;-70
2024/02/07 02:01:08;;;;;;;4.90;1.97;;;;;;;11.56;68.64;101209.72;2079472;28;20474;-71
2024/02/07 02:02:09;;;;;;;4.43;2.47;;;;;;;12.04;68.59;101273.09;2079979;28;20511;-71
2024/02/07 02:03:12;;;;;;;4.43;1.90;;;;;;;11.82;68.25;101246.91;2080947;28;20205;-70
2024/02/07 02:04:12;;;;;;;5.13;2.43;;;;;;;11.67;68.77;101226.97;2089354;28;20187;-72
2024/02/07 02:05:13;;;;;;;4.63;2.50;;;;;;;11.97;69.18;101268.47;2081406;28;20450;-70
2024/02/07 02:06:13;;;;;;;6.27;2.90;;;;;;;11.77;68.83;101234.31;2080013;28;20254;-70
2024/02/07 02:07:14;;;;;;;3.40;2.20;;;;;;;12.02;69.00;101267.16;2079420;28;20282;-71
2024/02/07 02:08:15;;;;;;;5.30;2.47;;;;;;;12.04;69.05;101264.78;2079390;28;20180;-70
2024/02/07 02:09:15;;;;;;;4.50;2.60;;;;;;;11.98;69.18;101267.25;2080341;28;20182;-72
2024/02/07 02:10:17;;;;;;;4.43;2.47;;;;;;;11.97;69.16;101267.66;2088560;28;20196;-70
2024/02/07 02:11:26;;;;;;;3.93;2.40;;;;;;;11.40;69.29;101179.09;2087364;28;20188;-70
2024/02/07 02:12:29;;;;;;;4.23;2.53;;;;;;;11.82;68.83;101253.28;2087796;28;20478;-71
2024/02/07 02:13:29;;;;;;;4.17;2.37;;;;;;;11.80;69.02;101250.16;2083114;28;20479;-70
2024/02/07 02:14:30;;;;;;;4.10;2.50;;;;;;;11.99;68.96;101266.03;2083031;28;20944;-71
2024/02/07 02:15:31;;;;;;;7.80;2.83;;;;;;;11.46;69.07;101190.47;2087438;28;20688;-70
2024/02/07 02:16:31;;;;;;;4.97;2.33;;;;;;;11.97;69.06;101267.66;2087406;28;20180;-71
2024/02/07 02:17:32;;;;;;;5.07;2.50;;;;;;;11.61;69.24;101208.47;2088527;28;20708;-70
2024/02/07 02:18:32;;;;;;;3.73;2.50;;;;;;;12.02;69.11;101267.16;2081248;28;20752;-70
2024/02/07 02:19:33;;;;;;;5.63;2.60;;;;;;;11.98;68.89;101250.56;2080492;28;20705;-70
2024/02/07 02:20:36;;;;;;;4.47;2.53;;;;;;;12.05;68.71;101264.31;2078673;28;20650;-71
2024/02/07 02:22:23;;;;;;;4.93;3.10;;;;;;;12.00;68.82;101253.69;2080489;28;20212;-70
2024/02/07 02:24:05;;;;;;;5.07;2.93;;;;;;;12.01;68.54;101262.84;2070104;28;20656;-71
2024/02/07 02:25:36;;;;;;;6.40;2.90;;;;;;;11.97;68.14;101254.56;2055040;28;20958;-71
2024/02/07 02:26:53;;;;;;;6.20;2.70;;;;;;;11.92;68.19;101251.50;2085710;28;20442;-70
2024/02/07 02:28:21;;;;;;;3.40;2.13;;;;;;;11.88;68.18;101248.03;2087540;28;20438;-71
2024/02/07 02:29:36;;;;;;;4.63;2.53;;;;;;;11.45;68.82;101189.69;2081733;28;20530;-71
2024/02/07 02:30:47;;;;;;;4.13;2.37;;;;;;;11.59;68.84;101227.53;2079999;28;20466;-71
2024/02/07 02:31:54;;;;;;;3.67;2.20;;;;;;;11.28;69.89;101181.69;2085247;28;20503;-71
2024/02/07 02:32:55;;;;;;;4.63;2.50;;;;;;;11.68;69.56;101252.75;2088648;28;20451;-72
2024/02/07 02:33:56;;;;;;;4.43;2.40;;;;;;;11.66;69.06;101246.84;2092083;28;20496;-71
2024/02/07 02:34:58;;;;;;;5.30;2.67;;;;;;;11.38;69.19;101202.91;2088187;28;20225;-71
2024/02/07 02:36:00;;;;;;;4.20;2.63;;;;;;;11.57;69.38;101252.91;2087338;28;20419;-71
2024/02/07 02:37:02;;;;;;;3.87;2.50;;;;;;;10.96;70.20;101165.59;2081114;28;20411;-71
2024/02/07 02:38:03;;;;;;;7.60;2.80;;;;;;;11.51;70.32;101256.59;2081704;28;20947;-71
2024/02/07 02:39:05;;;;;;;4.50;2.70;;;;;;;11.15;70.42;101205.69;2082732;28;20799;-71
2024/02/07 02:40:06;;;;;;;3.77;2.17;;;;;;;11.43;70.83;101255.16;2082732;28;20241;-71
2024/02/07 02:41:07;;;;;;;5.77;2.53;;;;;;;11.24;71.36;101222.59;2084538;28;20480;-71
2024/02/07 02:42:08;;;;;;;3.77;2.33;;;;;;;10.86;71.33;101169.31;2079580;28;20435;-71
2024/02/07 02:43:10;;;;;;;6.13;2.67;;;;;;;11.33;71.54;101245.03;2088087;28;20993;-71
2024/02/07 02:44:11;;;;;;;6.90;2.63;;;;;;;10.93;71.94;101187.84;2079210;28;20185;-71
2024/02/07 02:45:12;;;;;;;5.33;2.50;;;;;;;11.01;71.77;101201.16;2085014;28;20521;-71
2024/02/07 02:46:12;;;;;;;4.33;2.40;;;;;;;11.08;72.05;101228.00;2082175;28;20550;-71
2024/02/07 02:47:14;;;;;;;4.10;2.37;;;;;;;10.68;72.27;101151.41;2078844;28;20251;-71
2024/02/07 02:48:14;;;;;;;4.50;2.20;;;;;;;11.20;71.96;101233.75;2081823;28;20226;-70
2024/02/07 02:49:15;;;;;;;4.63;2.70;;;;;;;11.21;72.19;101231.75;2089044;28;20472;-71
2024/02/07 02:50:21;;;;;;;3.93;2.13;;;;;;;10.99;72.07;101208.34;2079989;28;20739;-71
2024/02/07 02:51:22;;;;;;;4.37;2.57;;;;;;;11.08;70.84;101223.25;2079348;28;20185;-71
2024/02/07 02:52:22;;;;;;;3.40;2.30;;;;;;;11.08;71.86;101223.25;2079373;28;20439;-70
2024/02/07 02:53:23;;;;;;;4.50;2.40;;;;;;;10.60;71.39;101161.06;2079504;28;20940;-72
2024/02/07 02:54:23;;;;;;;4.43;2.40;;;;;;;10.88;72.91;101232.69;2079184;28;20670;-70
2024/02/07 02:55:24;;;;;;;4.37;2.77;;;;;;;10.79;74.15;101226.88;2079298;28;20180;-71
2024/02/07 02:56:26;;;;;;;7.27;2.70;;;;;;;10.07;74.80;101133.31;2080861;28;20252;-71
2024/02/07 02:57:31;;;;;;;5.17;2.80;;;;;;;10.34;75.10;101206.94;2079538;28;20184;-70
2024/02/07 02:58:32;;;;;;;9.53;2.90;;;;;;;10.41;75.68;101186.66;2085245;28;20444;-71
2024/02/07 02:59:35;;;;;;;5.27;2.60;;;;;;;10.66;76.21;101232.22;2085780;28;20446;-70
2024/02/07 03:00:35;;;;;;;5.17;2.70;;;;;;;10.61;76.72;101229.91;2086251;28;20461;-71
2024/02/07 03:01:37;;;;;;;6.20;2.80;;;;;;;10.60;77.14;101235.88;2078424;28;20420;-71
2024/02/07 03:02:38;;;;;;;5.10;2.63;;;;;;;10.59;76.88;101239.84;2080065;28;20173;-71
2024/02/07 03:03:41;;;;;;;4.27;2.57;;;;;;;10.02;77.08;101148.41;2086085;28;20816;-71
2024/02/07 03:04:41;;;;;;;8.63;2.83;;;;;;;10.40;77.41;101216.34;2087410;28;20462;-71
2024/02/07 03:06:58;;;;;;;5.00;2.90;;;;;;;10.26;78.33;101216.53;2079626;28;20204;-72
2024/02/07 03:08:15;;;;;;;8.07;2.80;;;;;;;9.97;78.51;101175.75;2079728;28;20837;-71
2024/02/07 03:09:21;;;;;;;4.47;2.53;;;;;;;9.69;79.14;101132.59;2083963;28;20529;-71
2024/02/07 03:10:24;;;;;;;4.63;2.60;;;;;;;10.35;81.22;101229.91;2083312;28;20505;-70
2024/02/07 03:11:25;;;;;;;3.63;2.33;;;;;;;10.37;80.77;101241.34;2081164;28;20439;-70
2024/02/07 03:12:25;;;;;;;6.83;2.87;;;;;;;10.33;79.98;101233.06;2086311;28;20411;-71
2024/02/07 03:13:26;;;;;;;5.53;2.87;;;;;;;10.33;80.42;101238.63;2084153;28;20177;-71
2024/02/07 03:14:26;;;;;;;6.63;2.60;;;;;;;9.99;80.18;101187.97;2079954;28;20187;-71
2024/02/07 03:15:27;;;;;;;4.67;2.70;;;;;;;9.62;80.61;101132.69;2084815;28;20261;-70
2024/02/07 03:16:28;;;;;;;5.77;2.63;;;;;;;10.24;81.78;101237.56;2086820;28;20207;-71
2024/02/07 03:17:29;;;;;;;3.90;2.63;;;;;;;10.13;82.77;101215.53;2087183;28;20215;-71
2024/02/07 03:18:29;;;;;;;6.03;2.93;;;;;;;10.15;83.32;101235.28;2088595;28;20453;-71
2024/02/07 03:19:30;;;;;;;4.50;2.50;;;;;;;10.21;83.90;101236.41;2088436;28;20184;-71
2024/02/07 03:20:31;;;;;;;7.37;2.77;;;;;;;10.15;84.27;101240.06;2085923;28;20257;-70
2024/02/07 03:21:32;;;;;;;8.17;3.27;;;;;;;10.04;85.02;101245.69;2080547;28;20525;-71
2024/02/07 03:22:32;;;;;;;6.33;2.40;;;;;;;10.04;85.35;101245.69;2083530;28;20192;-71
2024/02/07 03:23:33;;;;;;;4.17;1.93;;;;;;;9.68;86.12;101172.53;2085341;28;20211;-70
2024/02/07 03:24:35;;;;;;;5.90;2.97;;;;;;;9.87;86.62;101201.56;2079291;28;20179;-71
2024/02/07 03:25:36;;;;;;;5.27;3.00;;;;;;;10.07;86.41;101236.59;2080670;28;20185;-70
2024/02/07 03:26:37;;;;;;;4.87;2.67;;;;;;;10.09;87.30;101238.94;2086653;28;21019;-71
2024/02/07 03:27:40;;;;;;;4.33;2.10;;;;;;;10.09;87.28;101238.94;2080798;28;20891;-71
2024/02/07 03:28:41;;;;;;;6.47;2.97;;;;;;;10.06;87.60;101246.09;2083849;28;20708;-71
2024/02/07 03:29:42;;;;;;;4.53;2.37;;;;;;;10.09;87.58;101245.25;2085484;28;20453;-72
2024/02/07 03:30:42;;;;;;;6.73;2.80;;;;;;;10.10;86.98;101230.19;2086442;28;20411;-71
2024/02/07 03:31:44;;;;;;;6.07;2.60;;;;;;;10.14;87.30;101230.19;2087235;28;20572;-71
2024/02/07 03:32:47;;;;;;;5.27;2.50;;;;;;;10.03;87.10;101215.63;2087906;28;20192;-71
2024/02/07 03:33:48;;;;;;;4.57;2.80;;;;;;;9.68;87.03;101171.78;2085081;28;20476;-71
2024/02/07 03:34:48;;;;;;;4.10;2.53;;;;;;;10.13;86.84;101229.38;2086542;28;20478;-72
2024/02/07 03:35:49;;;;;;;4.83;2.77;;;;;;;9.72;87.03;101161.41;2086303;28;21048;-71
2024/02/07 03:36:49;;;;;;;4.40;2.50;;;;;;;10.09;87.80;101233.41;2086045;28;20176;-71
2024/02/07 03:37:50;;;;;;;3.97;2.10;;;;;;;10.10;87.35;101226.66;2086266;28;20179;-71
2024/02/07 03:38:50;;;;;;;6.87;2.90;;;;;;;10.10;87.46;101229.44;2089007;28;20229;-71
2024/02/07 03:39:51;;;;;;;9.83;3.10;;;;;;;9.67;88.01;101176.50;2079395;28;20210;-71
2024/02/07 03:40:53;;;;;;;6.10;2.80;;;;;;;10.04;87.98;101229.09;2078789;28;20306;-71
2024/02/07 03:41:53;;;;;;;3.90;2.30;;;;;;;10.00;88.43;101244.16;2082691;28;20198;-71
2024/02/07 03:42:54;;;;;;;4.20;2.33;;;;;;;9.53;88.85;101173.13;2085707;28;20510;-71
2024/02/07 03:43:54;;;;;;;4.30;2.60;;;;;;;10.00;88.90;101236.63;2085681;28;20234;-71
2024/02/07 03:44:59;;;;;;;3.80;2.43;;;;;;;9.92;88.87;101235.16;2088164;28;20208;-71
2024/02/07 03:46:05;;;;;;;4.77;2.80;;;;;;;9.68;89.10;101200.22;2092934;28;20277;-71
2024/02/07 03:47:06;;;;;;;5.60;2.97;;;;;;;9.96;88.97;101235.09;2082161;28;20444;-71
2024/02/07 03:48:12;;;;;;;4.00;2.27;;;;;;;9.92;89.31;101240.69;2079157;28;20967;-71
2024/02/07 03:49:13;;;;;;;5.77;2.67;;;;;;;9.45;89.69;101163.31;2082031;28;20206;-70
2024/02/07 03:50:16;;;;;;;5.30;2.63;;;;;;;9.86;89.72;101247.06;2079959;28;20829;-70
2024/02/07 03:51:17;;;;;;;5.73;2.70;;;;;;;9.37;90.08;101156.31;2085200;28;20177;-71
2024/02/07 03:52:21;;;;;;;7.20;2.70;;;;;;;9.49;90.64;101197.28;2080572;28;20430;-71
2024/02/07 03:53:22;;;;;;;6.03;2.70;;;;;;;10.00;89.43;101244.91;2080830;28;20254;-71
2024/02/07 03:54:22;;;;;;;3.70;2.30;;;;;;;9.81;89.68;101212.34;2086966;28;20458;-70
2024/02/07 03:55:23;;;;;;;3.73;2.43;;;;;;;10.03;89.47;101251.63;2082501;28;20703;-71
2024/02/07 03:56:24;;;;;;;5.00;2.73;;;;;;;9.38;89.61;101163.41;2082027;28;20245;-70
2024/02/07 03:57:24;;;;;;;4.13;2.73;;;;;;;9.86;89.64;101227.69;2085538;28;20176;-71
2024/02/07 03:58:25;;;;;;;5.97;3.27;;;;;;;10.07;89.41;101246.84;2079540;28;20169;-71
2024/02/07 03:59:25;;;;;;;11.43;2.80;;;;;;;9.72;89.27;101194.63;2080079;28;20188;-71
2024/02/07 04:00:26;;;;;;;5.07;3.07;;;;;;;9.54;88.90;101169.16;2079192;28;20192;-71
2024/02/07 04:01:27;;;;;;;4.60;2.77;;;;;;;9.78;88.09;101198.53;2083295;28;20188;-71
2024/02/07 04:02:27;;;;;;;5.40;3.30;;;;;;;10.13;88.35;101246.00;2083639;28;20219;-71
2024/02/07 04:03:28;;;;;;;6.67;2.83;;;;;;;9.69;88.31;101171.34;2079411;28;20177;-71
2024/02/07 04:04:28;;;;;;;10.10;2.67;;;;;;;10.13;88.17;101243.22;2088033;28;20203;-71
2024/02/07 04:05:29;;;;;;;4.30;2.73;;;;;;;10.16;88.30;101252.69;2080063;28;20204;-71
2024/02/07 04:06:30;;;;;;;5.40;3.20;;;;;;;9.68;87.97;101180.84;2085253;28;20195;-71
2024/02/07 04:07:31;;;;;;;5.70;2.53;;;;;;;10.15;88.55;101245.59;2086494;28;20222;-70
2024/02/07 04:08:34;;;;;;;5.07;2.87;;;;;;;9.70;88.45;101172.13;2083578;28;20450;-71
2024/02/07 04:09:36;;;;;;;5.93;2.80;;;;;;;9.89;87.92;101202.72;2078630;28;20481;-71
2024/02/07 04:10:41;;;;;;;12.37;3.07;;;;;;;9.76;88.05;101176.81;2079528;28;20448;-71
2024/02/07 05:16:03;;;;;;;5.67;2.60;;;;;;;10.42;87.79;101166.06;2081390;28;20798;-68
2024/02/07 05:17:04;;;;;;;4.87;2.60;;;;;;;10.78;88.13;101209.47;2088736;28;20184;-68
2024/02/07 05:18:05;;;;;;;5.33;2.57;;;;;;;10.53;87.90;101177.78;2088213;28;20450;-68
2024/02/07 05:19:05;;;;;;;4.90;2.53;;;;;;;10.20;87.11;101123.25;2087944;28;20196;-68
2024/02/07 05:20:06;;;;;;;5.07;2.37;;;;;;;10.76;86.94;101214.63;2087856;28;20203;-68
2024/02/07 05:21:11;;;;;;;4.13;2.30;;;;;;;10.65;87.06;101219.56;2087392;28;20254;-69
2024/02/07 05:22:13;;;;;;;4.53;2.43;;;;;;;10.28;87.66;101158.75;2088307;28;20179;-68
2024/02/07 05:23:13;;;;;;;4.93;2.20;;;;;;;10.51;87.50;101191.28;2092548;28;20503;-68
2024/02/07 05:24:14;;;;;;;4.50;2.47;;;;;;;10.37;87.82;101181.19;2083466;28;20428;-68
2024/02/07 05:25:15;;;;;;;3.80;2.13;;;;;;;10.62;87.98;101216.84;2085893;28;20185;-67
2024/02/07 05:26:17;;;;;;;4.20;2.30;;;;;;;10.61;88.12;101215.28;2088505;28;20270;-72
2024/02/07 05:27:18;;;;;;;4.97;2.40;;;;;;;10.43;88.49;101195.34;2089569;28;20216;-71
2024/02/07 05:28:18;;;;;;;5.73;2.63;;;;;;;10.62;88.89;101225.97;2088087;28;20456;-71
2024/02/07 05:29:19;;;;;;;4.00;2.43;;;;;;;10.38;89.10;101177.22;2087613;28;20283;-72
2024/02/07 05:30:19;;;;;;;4.23;2.40;;;;;;;10.75;88.44;101218.63;2086306;28;20181;-70
2024/02/07 05:31:20;;;;;;;4.43;2.77;;;;;;;10.68;87.65;101223.47;2081429;28;20181;-70
2024/02/07 05:32:20;;;;;;;5.63;2.83;;;;;;;10.09;87.90;101140.00;2088049;28;20198;-69
2024/02/07 05:33:21;;;;;;;4.27;2.30;;;;;;;10.50;87.96;101192.47;2087469;28;20183;-69
2024/02/07 05:34:22;;;;;;;4.23;2.10;;;;;;;10.59;88.10;101209.34;2089317;28;20296;-71
2024/02/07 05:35:22;;;;;;;4.27;2.23;;;;;;;9.97;88.06;101121.16;2086331;28;20900;-71
2024/02/07 05:36:23;;;;;;;4.20;2.30;;;;;;;10.57;88.53;101222.84;2083874;28;20200;-74
2024/02/07 05:37:23;;;;;;;4.53;2.37;;;;;;;10.54;89.10;101220.91;2086897;28;20187;-74
2024/02/07 05:38:24;;;;;;;5.20;2.80;;;;;;;10.31;89.40;101195.91;2087772;28;20263;-73
2024/02/07 05:39:26;;;;;;;4.30;2.40;;;;;;;9.89;90.06;101150.13;2085288;28;20300;-73
2024/02/07 05:40:26;;;;;;;6.13;2.70;;;;;;;10.27;90.29;101197.94;2085359;28;21057;-73
2024/02/07 05:41:27;;;;;;;4.83;2.37;;;;;;;10.05;90.59;101171.72;2080641;28;20690;-71
2024/02/07 05:42:27;;;;;;;6.90;2.63;;;;;;;10.39;91.23;101219.53;2084361;28;20198;-70
2024/02/07 05:43:28;;;;;;;4.47;2.40;;;;;;;10.40;91.49;101219.13;2086133;28;20251;-70
2024/02/07 05:44:28;;;;;;;6.20;2.97;;;;;;;10.43;91.27;101225.81;2078549;28;20240;-74
2024/02/07 05:45:29;;;;;;;7.03;3.17;;;;;;;10.31;91.54;101201.44;2085122;28;20199;-68
2024/02/07 05:46:30;;;;;;;5.90;2.73;;;;;;;10.37;91.54;101221.94;2076834;28;20661;-68
2024/02/07 05:47:30;;;;;;;5.07;3.03;;;;;;;10.34;92.21;101223.56;2088555;28;20198;-67
2024/02/07 05:48:31;;;;;;;5.53;2.83;;;;;;;10.29;92.24;101226.78;2085051;28;20582;-69
2024/02/07 05:49:31;;;;;;;5.07;3.17;;;;;;;10.16;92.68;101209.19;2083519;28;20206;-68
2024/02/07 05:50:32;;;;;;;5.47;3.13;;;;;;;10.22;93.33;101234.41;2086628;28;20237;-68
2024/02/07 05:51:34;;;;;;;6.23;2.67;;;;;;;10.17;93.64;101237.63;2074353;28;20274;-68
2024/02/07 05:52:35;;;;;;;6.33;3.03;;;;;;;10.17;94.07;101221.03;2087835;28;20191;-68
2024/02/07 05:53:35;;;;;;;5.53;2.90;;;;;;;9.93;94.42;101189.63;2089174;28;20985;-68
2024/02/07 05:54:36;;;;;;;7.87;3.53;;;;;;;10.10;94.56;101219.13;2087025;28;20972;-68
2024/02/07 05:55:36;;;;;;;5.47;3.10;;;;;;;9.24;94.93;101075.84;2088461;28;20213;-68
2024/02/07 05:56:37;;;;;;;6.10;3.10;;;;;;;9.76;95.05;101165.75;2091595;28;20183;-68